createdAt,value
2018-10-06T00:01:27.229Z,1.32
2018-10-06T00:03:57.858Z,1.30
2018-10-06T00:06:28.007Z,1.30
2018-10-06T00:08:58.211Z,1.52
2018-10-06T00:11:28.635Z,1.20
2018-10-06T00:14:00.396Z,1.32
2018-10-06T00:16:30.618Z,1.52
2018-10-06T00:19:01.457Z,2.00
2018-10-06T00:21:31.675Z,1.02
2018-10-06T00:24:01.901Z,1.52
2018-10-06T00:26:32.325Z,1.50
2018-10-06T00:29:02.653Z,1.37
2018-10-06T00:31:32.993Z,1.00
2018-10-06T00:34:03.709Z,1.17
2018-10-06T00:36:34.185Z,1.45
2018-10-06T00:39:05.389Z,1.05
2018-10-06T00:41:36.632Z,1.10
2018-10-06T00:45:36.454Z,1.27
2018-10-06T00:48:07.808Z,1.25
2018-10-06T00:50:37.826Z,1.20
2018-10-06T00:53:09.378Z,1.55
2018-10-06T00:55:40.012Z,1.00
2018-10-06T00:58:10.543Z,0.90
2018-10-06T01:00:41.274Z,1.40
2018-10-06T01:03:11.910Z,1.30
2018-10-06T01:05:42.027Z,1.20
2018-10-06T01:08:12.466Z,1.50
2018-10-06T01:10:42.992Z,1.37
2018-10-06T01:13:13.403Z,1.30
2018-10-06T01:15:44.863Z,1.22
2018-10-06T01:18:15.300Z,1.60
2018-10-06T01:20:45.517Z,1.00
2018-10-06T01:23:16.045Z,1.12
2018-10-06T01:25:46.576Z,1.22
2018-10-06T01:28:17.004Z,1.42
2018-10-06T01:30:47.334Z,1.35
2018-10-06T01:33:18.065Z,1.20
2018-10-06T01:35:48.695Z,0.98
2018-10-06T01:38:19.553Z,1.17
2018-10-06T01:40:50.168Z,1.00
2018-10-06T01:43:21.208Z,1.07
2018-10-06T01:45:51.745Z,1.25
2018-10-06T01:48:22.573Z,1.25
2018-10-06T01:50:53.601Z,0.90
2018-10-06T01:53:23.948Z,1.37
2018-10-06T01:55:54.372Z,1.30
2018-10-06T01:58:24.597Z,1.25
2018-10-06T02:00:55.238Z,0.98
2018-10-06T02:03:25.965Z,1.20
2018-10-06T02:05:56.293Z,1.42
2018-10-06T02:08:26.920Z,1.17
2018-10-06T02:10:57.656Z,0.80
2018-10-06T02:13:27.768Z,0.93
2018-10-06T02:15:58.311Z,1.25
2018-10-06T02:18:29.250Z,1.50
2018-10-06T02:20:59.983Z,1.17
2018-10-06T02:23:30.713Z,1.10
2018-10-06T02:26:01.852Z,0.90
2018-10-06T02:28:33.020Z,1.17
2018-10-06T02:31:03.643Z,1.30
2018-10-06T02:33:34.270Z,1.10
2018-10-06T02:36:04.897Z,1.60
2018-10-06T02:38:35.254Z,1.32
2018-10-06T02:41:06.781Z,1.25
2018-10-06T02:43:37.122Z,1.55
2018-10-06T02:46:07.535Z,1.40
2018-10-06T02:48:37.983Z,1.20
2018-10-06T02:51:08.501Z,1.05
2018-10-06T02:53:38.825Z,1.12
2018-10-06T02:56:09.145Z,1.57
2018-10-06T02:58:40.195Z,1.20
2018-10-06T03:01:12.049Z,1.05
2018-10-06T03:03:42.489Z,1.00
2018-10-06T03:06:13.096Z,1.20
2018-10-06T03:08:43.643Z,1.57
2018-10-06T03:11:14.107Z,1.00
2018-10-06T03:13:44.500Z,1.10
2018-10-06T03:16:15.121Z,1.20
2018-10-06T03:18:46.074Z,1.00
2018-10-06T03:21:16.705Z,0.93
2018-10-06T03:23:48.461Z,1.07
2018-10-06T03:26:18.996Z,1.20
2018-10-06T03:28:49.519Z,1.30
2018-10-06T03:31:21.278Z,1.10
2018-10-06T03:33:52.205Z,0.90
2018-10-06T03:36:22.853Z,1.10
2018-10-06T03:38:53.481Z,1.20
2018-10-06T03:41:24.833Z,1.15
2018-10-06T03:43:55.057Z,1.20
2018-10-06T03:46:25.377Z,1.20
2018-10-06T03:48:56.012Z,0.98
2018-10-06T03:51:26.851Z,1.30
2018-10-06T03:53:57.084Z,1.05
2018-10-06T03:56:27.602Z,1.72
2018-10-06T03:58:58.337Z,0.80
2018-10-06T04:01:28.875Z,1.20
2018-10-06T04:03:59.813Z,1.20
2018-10-06T04:06:30.850Z,1.10
2018-10-06T04:09:01.275Z,1.20
2018-10-06T04:11:32.522Z,0.75
2018-10-06T04:14:03.056Z,1.37
2018-10-06T04:16:33.480Z,1.07
2018-10-06T04:19:04.227Z,1.30
2018-10-06T04:21:39.568Z,1.27
2018-10-06T04:24:10.294Z,1.00
2018-10-06T04:26:40.831Z,1.05
2018-10-06T04:29:11.867Z,1.10
2018-10-06T04:31:42.397Z,1.02
2018-10-06T04:34:12.932Z,0.95
2018-10-06T04:36:43.766Z,1.15
2018-10-06T04:39:14.709Z,0.93
2018-10-06T04:41:45.631Z,0.88
2018-10-06T04:44:16.677Z,1.10
2018-10-06T04:46:47.524Z,0.80
2018-10-06T04:49:18.467Z,1.07
2018-10-06T04:51:49.410Z,1.02
2018-10-06T04:54:19.832Z,1.05
2018-10-06T04:56:50.766Z,1.32
2018-10-06T04:59:21.305Z,0.95
2018-10-06T05:01:51.954Z,1.00
2018-10-06T05:04:22.671Z,1.20
2018-10-06T05:06:53.917Z,1.10
2018-10-06T05:09:24.851Z,1.40
2018-10-06T05:11:55.708Z,1.60
2018-10-06T05:14:25.920Z,0.98
2018-10-06T05:16:56.830Z,0.88
2018-10-06T05:19:27.691Z,1.17
2018-10-06T05:21:57.908Z,1.45
2018-10-06T05:24:28.143Z,1.10
2018-10-06T05:26:59.182Z,1.15
2018-10-06T05:29:29.945Z,0.90
2018-10-06T05:32:00.246Z,1.17
2018-10-06T05:34:30.981Z,1.00
2018-10-06T05:37:01.313Z,1.20
2018-10-06T05:39:32.028Z,1.20
2018-10-06T05:42:03.189Z,1.12
2018-10-06T05:44:33.819Z,1.20
2018-10-06T05:47:04.548Z,1.10
2018-10-06T05:49:35.385Z,1.12
2018-10-06T05:52:06.437Z,1.15
2018-10-06T05:54:37.278Z,1.85
2018-10-06T05:57:08.306Z,1.05
2018-10-06T06:01:08.238Z,1.40
2018-10-06T06:03:38.667Z,0.98
2018-10-06T06:06:08.888Z,1.27
2018-10-06T06:08:40.131Z,1.05
2018-10-06T06:11:10.557Z,1.30
2018-10-06T06:13:41.091Z,0.90
2018-10-06T06:16:11.735Z,1.00
2018-10-06T06:18:41.947Z,0.98
2018-10-06T06:21:12.173Z,1.00
2018-10-06T06:23:43.117Z,1.02
2018-10-06T06:26:14.050Z,1.67
2018-10-06T06:28:44.374Z,0.90
2018-10-06T06:31:15.656Z,1.62
2018-10-06T06:33:46.148Z,1.25
2018-10-06T06:36:16.781Z,1.02
2018-10-06T06:38:47.518Z,1.15
2018-10-06T06:41:19.075Z,1.37
2018-10-06T06:43:49.952Z,1.12
2018-10-06T06:46:20.432Z,0.98
2018-10-06T06:48:50.976Z,1.12
2018-10-06T06:51:22.223Z,0.85
2018-10-06T06:53:52.852Z,1.02
2018-10-06T06:56:23.487Z,1.12
2018-10-06T06:58:54.328Z,1.10
2018-10-06T07:01:25.503Z,0.90
2018-10-06T07:03:55.689Z,0.78
2018-10-06T07:06:26.741Z,0.80
2018-10-06T07:08:57.465Z,1.07
2018-10-06T07:11:28.102Z,1.42
2018-10-06T07:13:58.829Z,1.10
2018-10-06T07:16:29.876Z,1.20
2018-10-06T07:19:00.411Z,1.40
2018-10-06T07:21:31.556Z,1.30
2018-10-06T07:24:02.185Z,1.37
2018-10-06T07:26:33.238Z,1.22
2018-10-06T07:29:05.499Z,1.05
2018-10-06T07:31:36.231Z,1.40
2018-10-06T07:34:06.867Z,1.25
2018-10-06T07:36:37.300Z,1.17
2018-10-06T07:39:08.746Z,1.50
2018-10-06T07:41:38.969Z,1.10
2018-10-06T07:44:09.607Z,1.40
2018-10-06T07:46:40.231Z,1.12
2018-10-06T07:49:10.980Z,1.30
2018-10-06T07:51:41.817Z,1.57
2018-10-06T07:54:12.130Z,1.40
2018-10-06T07:56:42.684Z,1.20
2018-10-06T07:59:13.044Z,1.80
2018-10-06T08:01:43.617Z,1.75
2018-10-06T08:04:13.740Z,29.65
2018-10-06T08:06:44.060Z,262.72
2018-10-06T08:09:15.002Z,168.07
2018-10-06T08:11:45.732Z,154.47
2018-10-06T08:14:16.065Z,131.47
2018-10-06T08:16:46.696Z,139.18
2018-10-06T08:19:17.530Z,123.28
2018-10-06T08:21:48.066Z,119.93
2018-10-06T08:24:18.488Z,114.22
2018-10-06T08:26:49.633Z,107.00
2018-10-06T08:29:20.375Z,101.50
2018-10-06T08:31:50.901Z,94.58
2018-10-06T08:34:21.634Z,90.40
2018-10-06T08:36:51.652Z,83.30
2018-10-06T08:39:22.592Z,80.47
2018-10-06T08:41:53.025Z,76.22
2018-10-06T08:44:23.250Z,73.15
2018-10-06T08:46:53.984Z,64.70
2018-10-06T08:49:24.306Z,66.67
2018-10-06T08:51:54.534Z,64.53
2018-10-06T08:54:24.746Z,58.78
2018-10-06T08:56:55.178Z,58.60
2018-10-06T08:59:25.305Z,53.15
2018-10-06T09:01:55.629Z,53.58
2018-10-06T09:04:26.241Z,54.23
2018-10-06T09:06:56.889Z,54.25
2018-10-06T09:09:27.311Z,48.90
2018-10-06T09:11:58.049Z,48.00
2018-10-06T09:14:28.791Z,46.25
2018-10-06T09:16:58.908Z,47.38
2018-10-06T09:19:29.541Z,46.30
2018-10-06T09:32:02.296Z,37.38
2018-10-06T09:34:32.518Z,37.25
2018-10-06T09:37:03.668Z,36.05
2018-10-06T09:39:34.089Z,35.33
2018-10-06T09:42:04.748Z,34.78
2018-10-06T09:44:35.561Z,34.83
2018-10-06T09:47:06.523Z,31.73
2018-10-06T09:49:36.928Z,30.82
2018-10-06T09:52:07.506Z,30.85
2018-10-06T09:54:37.889Z,30.95
2018-10-06T09:57:08.317Z,29.75
2018-10-06T09:59:38.807Z,29.32
2018-10-06T10:03:13.779Z,28.05
2018-10-06T10:05:46.193Z,27.90
2018-10-06T10:08:16.694Z,27.00
2018-10-06T10:10:48.338Z,25.10
2018-10-06T10:13:20.313Z,26.23
2018-10-06T10:15:51.142Z,26.17
2018-10-06T10:18:21.730Z,23.05
2018-10-06T10:20:52.104Z,23.50
2018-10-06T10:23:23.217Z,22.52
2018-10-06T10:25:53.368Z,21.73
2018-10-06T10:28:24.006Z,19.95
2018-10-06T10:30:54.531Z,21.10
2018-10-06T10:33:24.844Z,21.00
2018-10-06T10:35:55.184Z,19.75
2018-10-06T10:38:25.503Z,19.50
2018-10-06T10:40:55.932Z,17.75
2018-10-06T10:43:26.461Z,18.07
2018-10-06T10:45:56.682Z,17.37
2018-10-06T10:48:27.214Z,17.27
2018-10-06T10:50:57.436Z,17.45
2018-10-06T10:53:27.866Z,15.15
2018-10-06T10:55:58.296Z,15.53
2018-10-06T10:58:28.827Z,14.07
2018-10-06T11:00:59.207Z,14.95
2018-10-06T11:03:30.292Z,14.45
2018-10-06T11:06:00.519Z,14.70
2018-10-06T11:08:30.948Z,13.93
2018-10-06T11:11:01.056Z,13.72
2018-10-06T11:13:31.495Z,12.73
2018-10-06T11:17:31.422Z,12.70
2018-10-06T11:20:02.105Z,12.25
2018-10-06T11:22:32.381Z,11.73
2018-10-06T11:25:02.606Z,12.47
2018-10-06T11:27:32.723Z,10.93
2018-10-06T11:30:04.079Z,11.85
2018-10-06T11:32:34.702Z,10.78
2018-10-06T11:35:05.138Z,10.35
2018-10-06T11:37:35.865Z,10.53
2018-10-06T11:40:06.397Z,10.68
2018-10-06T11:42:37.134Z,10.15
2018-10-06T11:45:07.460Z,9.43
2018-10-06T11:47:38.092Z,8.78
2018-10-06T11:50:08.794Z,8.48
2018-10-06T11:52:39.150Z,8.73
2018-10-06T11:55:09.794Z,8.45
2018-10-06T11:57:40.211Z,8.45
2018-10-06T12:00:10.198Z,8.15
2018-10-06T12:02:40.355Z,8.20
2018-10-06T12:05:10.567Z,7.87
2018-10-06T12:07:41.208Z,7.22
2018-10-06T12:10:11.731Z,7.65
2018-10-06T12:12:42.421Z,7.60
2018-10-06T12:15:12.909Z,7.83
2018-10-06T12:17:43.323Z,8.58
2018-10-06T12:20:13.958Z,7.78
2018-10-06T12:22:44.184Z,7.15
2018-10-06T12:25:14.510Z,7.78
2018-10-06T12:27:45.045Z,7.03
2018-10-06T12:30:15.779Z,7.58
2018-10-06T12:32:47.226Z,6.87
2018-10-06T12:35:17.664Z,7.50
2018-10-06T12:37:48.291Z,7.17
2018-10-06T12:40:18.817Z,6.45
2018-10-06T12:42:49.243Z,6.47
2018-10-06T12:45:19.612Z,6.28
2018-10-06T12:47:49.685Z,6.55
2018-10-06T12:50:20.221Z,5.72
2018-10-06T12:52:51.310Z,5.87
2018-10-06T12:55:21.897Z,5.87
2018-10-06T12:57:52.526Z,4.60
2018-10-06T13:00:23.160Z,5.20
2018-10-06T13:02:53.584Z,5.25
2018-10-06T13:05:23.812Z,5.00
2018-10-06T13:07:54.034Z,5.05
2018-10-06T13:10:24.259Z,5.15
2018-10-06T13:12:54.677Z,4.15
2018-10-06T13:15:25.218Z,4.10
2018-10-06T13:17:55.742Z,4.53
2018-10-06T13:20:26.175Z,4.40
2018-10-06T13:22:56.705Z,4.25
2018-10-06T13:25:27.433Z,4.00
2018-10-06T13:27:57.664Z,4.30
2018-10-06T13:30:28.389Z,3.72
2018-10-06T13:32:58.908Z,4.00
2018-10-06T13:35:30.066Z,4.05
2018-10-06T13:38:00.394Z,3.65
2018-10-06T13:40:31.436Z,4.00
2018-10-06T13:43:01.866Z,4.05
2018-10-06T13:45:32.905Z,3.20
2018-10-06T13:48:03.017Z,3.55
2018-10-06T13:50:33.349Z,2.87
2018-10-06T13:53:03.974Z,3.40
2018-10-06T13:55:34.204Z,3.00
2018-10-06T13:58:05.779Z,3.70
2018-10-06T14:00:36.600Z,3.33
2018-10-06T14:03:07.229Z,3.05
2018-10-06T14:05:37.350Z,4.05
2018-10-06T14:08:08.801Z,3.50
2018-10-06T14:10:39.148Z,3.77
2018-10-06T14:13:09.353Z,3.70
2018-10-06T14:15:39.677Z,3.20
2018-10-06T14:18:10.105Z,3.70
2018-10-06T14:20:40.945Z,3.40
2018-10-06T14:23:11.268Z,3.30
2018-10-06T14:25:41.795Z,3.35
2018-10-06T14:28:12.242Z,2.98
2018-10-06T14:30:42.959Z,2.80
2018-10-06T14:33:14.106Z,3.30
2018-10-06T14:35:44.532Z,2.65
2018-10-06T14:38:15.885Z,2.98
2018-10-06T14:40:47.025Z,2.55
2018-10-06T14:43:17.046Z,2.62
2018-10-06T14:45:47.470Z,2.87
2018-10-06T14:48:18.211Z,2.90
2018-10-06T14:50:48.740Z,2.58
2018-10-06T14:53:19.266Z,2.40
2018-10-06T14:55:49.493Z,3.12
2018-10-06T14:58:19.717Z,2.50
2018-10-06T15:00:49.933Z,2.33
2018-10-06T15:03:20.410Z,2.40
2018-10-06T15:05:51.205Z,2.42
2018-10-06T15:08:21.318Z,3.08
2018-10-06T15:10:52.063Z,2.62
2018-10-06T15:13:23.307Z,2.40
2018-10-06T15:15:54.073Z,2.20
2018-10-06T15:18:25.290Z,2.52
2018-10-06T15:20:55.570Z,2.60
2018-10-06T15:23:26.138Z,2.45
2018-10-06T15:25:56.786Z,2.47
2018-10-06T15:28:27.301Z,2.58
2018-10-06T15:30:57.630Z,2.20
2018-10-06T15:33:27.657Z,2.15
2018-10-06T15:35:58.678Z,2.45
2018-10-06T15:38:29.676Z,1.90
2018-10-06T15:41:00.880Z,2.27
2018-10-06T15:43:31.408Z,2.30
2018-10-06T15:46:02.152Z,1.80
2018-10-06T15:48:32.574Z,2.20
2018-10-06T15:51:02.832Z,2.00
2018-10-06T15:53:34.259Z,1.98
2018-10-06T15:56:05.188Z,2.62
2018-10-06T15:58:36.127Z,2.22
2018-10-06T16:01:06.866Z,2.37
2018-10-06T16:03:37.389Z,2.08
2018-10-06T16:06:08.123Z,2.50
2018-10-06T16:08:40.396Z,2.10
2018-10-06T16:11:10.863Z,2.37
2018-10-06T16:13:41.836Z,2.02
2018-10-06T16:16:12.604Z,2.83
2018-10-06T16:18:43.234Z,2.60
2018-10-06T16:21:13.954Z,2.37
2018-10-06T16:23:44.498Z,2.33
2018-10-06T16:26:14.827Z,2.30
2018-10-06T16:28:45.149Z,2.12
2018-10-06T16:31:15.885Z,2.60
2018-10-06T16:33:46.123Z,2.52
2018-10-06T16:36:17.050Z,2.80
2018-10-06T16:38:47.583Z,2.47
2018-10-06T16:41:18.073Z,2.25
2018-10-06T16:43:48.230Z,2.40
2018-10-06T16:46:19.273Z,2.40
2018-10-06T16:48:49.595Z,2.25
2018-10-06T16:51:19.722Z,2.70
2018-10-06T16:53:50.137Z,2.58
2018-10-06T16:56:21.291Z,2.52
2018-10-06T16:58:51.713Z,2.05
2018-10-06T17:01:22.172Z,2.60
2018-10-06T17:03:52.475Z,1.85
2018-10-06T17:06:22.842Z,2.45
2018-10-06T17:08:54.156Z,1.90
2018-10-06T17:11:24.674Z,2.10
2018-10-06T17:13:55.113Z,1.87
2018-10-06T17:16:25.323Z,2.00
2018-10-06T17:18:55.747Z,2.00
2018-10-06T17:21:26.591Z,2.20
2018-10-06T17:23:57.135Z,2.12
2018-10-06T17:26:27.761Z,2.00
2018-10-06T17:28:58.336Z,1.82
2018-10-06T17:31:29.030Z,1.70
2018-10-06T17:33:59.444Z,2.33
2018-10-06T17:36:30.078Z,2.08
2018-10-06T17:39:01.431Z,1.92
2018-10-06T17:41:32.163Z,2.02
2018-10-06T17:44:03.224Z,1.60
2018-10-06T17:46:34.152Z,1.77
2018-10-06T17:49:05.817Z,1.77
2018-10-06T17:51:36.853Z,1.52
2018-10-06T17:54:07.781Z,1.70
2018-10-06T17:56:38.755Z,2.20
2018-10-06T17:59:10.904Z,1.90
2018-10-06T18:01:41.730Z,2.30
2018-10-06T18:04:12.503Z,2.25
2018-10-06T18:06:43.100Z,2.30
2018-10-06T18:09:14.166Z,2.20
2018-10-06T18:11:44.492Z,2.08
2018-10-06T18:14:15.309Z,2.17
2018-10-06T18:16:46.245Z,2.47
2018-10-06T18:19:16.659Z,2.52
2018-10-06T18:21:47.314Z,3.08
2018-10-06T18:24:18.142Z,2.17
2018-10-06T18:26:49.080Z,3.02
2018-10-06T18:29:19.537Z,3.12
2018-10-06T18:31:51.468Z,3.08
2018-10-06T18:34:23.224Z,3.02
2018-10-06T18:36:54.056Z,3.10
2018-10-06T18:39:24.903Z,3.00
2018-10-06T18:41:55.639Z,2.98
2018-10-06T18:44:26.377Z,3.58
2018-10-06T18:46:56.702Z,3.10
2018-10-06T18:49:34.187Z,3.15
2018-10-06T18:52:04.526Z,2.90
2018-10-06T18:54:34.939Z,3.25
2018-10-06T18:57:06.601Z,3.35
2018-10-06T18:59:37.025Z,3.15
2018-10-06T19:02:07.458Z,3.33
2018-10-06T19:04:38.394Z,3.70
2018-10-06T19:07:09.033Z,3.80
2018-10-06T19:09:39.974Z,3.30
2018-10-06T19:12:11.013Z,3.90
2018-10-06T19:14:41.847Z,3.35
2018-10-06T19:17:13.415Z,3.62
2018-10-06T19:19:43.735Z,3.77
2018-10-06T19:22:14.255Z,3.85
2018-10-06T19:24:44.902Z,4.17
2018-10-06T19:27:15.321Z,4.15
2018-10-06T19:29:45.950Z,4.05
2018-10-06T19:32:16.687Z,3.95
2018-10-06T19:34:47.734Z,3.83
2018-10-06T19:37:18.260Z,4.00
2018-10-06T19:39:48.738Z,4.47
2018-10-06T19:42:19.425Z,4.22
2018-10-06T19:44:50.361Z,4.58
2018-10-06T19:47:21.096Z,4.67
2018-10-06T19:49:51.735Z,5.08
2018-10-06T19:52:22.061Z,5.40
2018-10-06T19:54:52.687Z,5.50
2018-10-06T19:57:24.036Z,5.33
2018-10-06T19:59:54.665Z,5.53
2018-10-06T20:02:25.095Z,4.83
2018-10-06T20:04:55.304Z,5.50
2018-10-06T20:07:26.164Z,5.47
2018-10-06T20:09:57.001Z,6.05
2018-10-06T20:12:27.980Z,5.65
2018-10-06T20:14:59.180Z,5.47
2018-10-06T20:17:30.126Z,5.55
2018-10-06T20:20:00.764Z,5.42
2018-10-06T20:22:31.373Z,5.65
2018-10-06T20:25:02.022Z,6.97
2018-10-06T20:27:32.346Z,6.42
2018-10-06T20:30:02.978Z,5.70
2018-10-06T20:32:33.613Z,5.10
2018-10-06T20:35:04.440Z,5.60
2018-10-06T20:37:35.182Z,5.55
2018-10-06T20:40:05.851Z,5.37
2018-10-06T20:42:36.536Z,5.92
2018-10-06T20:45:07.695Z,5.80
2018-10-06T20:47:38.630Z,5.78
2018-10-06T20:50:09.578Z,5.67
2018-10-06T20:52:40.310Z,6.00
2018-10-06T20:55:11.760Z,5.58
2018-10-06T20:57:42.207Z,5.67
2018-10-06T21:00:13.235Z,6.22
2018-10-06T21:02:43.650Z,5.72
2018-10-06T21:05:14.402Z,6.55
2018-10-06T21:07:45.338Z,5.28
2018-10-06T21:10:16.296Z,5.40
2018-10-06T21:12:47.536Z,5.30
2018-10-06T21:15:18.677Z,6.47
2018-10-06T21:20:25.257Z,5.22
2018-10-06T21:36:56.913Z,5.22
2018-10-06T21:39:33.380Z,4.53
2018-10-06T21:42:08.827Z,5.87
2018-10-06T21:44:44.683Z,4.62
2018-10-06T21:47:20.448Z,4.60
2018-10-06T21:49:56.708Z,4.75
2018-10-06T21:52:30.610Z,4.50
2018-10-06T21:55:03.393Z,5.15
2018-10-06T21:57:35.261Z,3.75
2018-10-06T22:00:07.627Z,4.35
2018-10-06T22:02:38.360Z,4.20
2018-10-06T22:05:08.985Z,4.90
2018-10-06T22:07:39.826Z,3.87
2018-10-06T22:10:10.565Z,4.12
2018-10-06T22:12:41.301Z,3.80
2018-10-06T22:15:12.079Z,3.62
2018-10-06T22:17:43.280Z,4.33
2018-10-06T22:20:14.421Z,4.08
2018-10-06T22:22:45.052Z,4.00
2018-10-06T22:25:16.191Z,3.77
2018-10-06T22:27:47.133Z,3.27
2018-10-06T22:30:17.776Z,3.25
2018-10-06T22:32:48.504Z,2.92
2018-10-06T22:35:20.369Z,3.08
2018-10-06T22:37:51.509Z,3.95
2018-10-06T22:40:22.660Z,2.80
2018-10-06T22:42:53.192Z,3.17
2018-10-06T22:45:23.719Z,3.45
2018-10-06T22:47:54.346Z,2.98
2018-10-06T22:50:25.186Z,3.10
2018-10-06T22:52:56.020Z,2.70
2018-10-06T22:55:26.769Z,3.33
2018-10-06T22:57:57.597Z,2.80
2018-10-06T23:00:28.539Z,2.87
2018-10-06T23:02:59.328Z,2.90
2018-10-06T23:05:29.906Z,2.72
2018-10-06T23:08:00.433Z,2.92
2018-10-06T23:10:30.971Z,2.80
2018-10-06T23:13:01.492Z,3.10
2018-10-06T23:15:32.021Z,2.47
2018-10-06T23:18:02.655Z,3.00
2018-10-06T23:20:33.485Z,2.80
2018-10-06T23:23:04.225Z,2.45
2018-10-06T23:25:34.968Z,2.75
2018-10-06T23:28:05.525Z,3.00
2018-10-06T23:30:36.343Z,2.87
2018-10-06T23:33:07.563Z,2.65
2018-10-06T23:35:40.057Z,2.90
2018-10-06T23:38:11.582Z,2.60
2018-10-06T23:40:42.450Z,2.52
2018-10-06T23:43:13.484Z,2.30
2018-10-06T23:45:44.333Z,2.17
2018-10-06T23:48:15.162Z,2.47
2018-10-06T23:50:45.683Z,2.40
2018-10-06T23:53:16.430Z,2.33
2018-10-06T23:55:47.261Z,1.80
2018-10-06T23:58:18.413Z,1.90
